createdAt,value
2022-09-16T00:00:18.897Z,9.8
2022-09-16T00:02:18.346Z,9.8
2022-09-16T00:04:18.536Z,9.8
2022-09-16T00:06:20.669Z,9.7
2022-09-16T00:08:19.722Z,9.7
2022-09-16T00:10:19.026Z,9.7
2022-09-16T00:12:19.031Z,9.7
2022-09-16T00:14:19.103Z,9.7
2022-09-16T00:16:21.570Z,9.6
2022-09-16T00:18:19.917Z,9.6
2022-09-16T00:20:19.865Z,9.6
2022-09-16T00:22:19.608Z,9.6
2022-09-16T00:24:20.002Z,9.6
2022-09-16T00:26:19.884Z,9.6
2022-09-16T00:28:20.720Z,9.6
2022-09-16T00:30:20.235Z,9.6
2022-09-16T00:32:20.303Z,9.6
2022-09-16T00:34:20.629Z,9.5
2022-09-16T00:36:20.661Z,9.5
2022-09-16T00:38:20.724Z,9.5
2022-09-16T00:40:21.111Z,9.5
2022-09-16T00:42:21.049Z,9.5
2022-09-16T00:44:50.783Z,9.5
2022-09-16T00:46:28.592Z,9.5
2022-09-16T00:48:23.795Z,9.5
2022-09-16T00:50:25.682Z,9.5
2022-09-16T00:52:22.186Z,9.5
2022-09-16T00:54:22.991Z,9.5
2022-09-16T00:56:25.609Z,9.4
2022-09-16T00:58:29.472Z,9.4
2022-09-16T01:00:22.342Z,9.4
2022-09-16T01:02:23.638Z,9.4
2022-09-16T01:04:26.845Z,9.4
2022-09-16T01:06:26.020Z,9.5
2022-09-16T01:08:22.695Z,9.5
2022-09-16T01:10:24.623Z,9.5
2022-09-16T01:12:24.061Z,9.5
2022-09-16T01:14:25.496Z,9.5
2022-09-16T01:16:33.558Z,9.7
2022-09-16T01:18:30.533Z,9.7
2022-09-16T01:20:59.605Z,9.7
2022-09-16T01:22:45.386Z,9.7
2022-09-16T01:24:43.744Z,9.7
2022-09-16T01:26:44.586Z,9.7
2022-09-16T01:28:51.927Z,9.7
2022-09-16T01:30:45.731Z,9.7
2022-09-16T01:32:31.985Z,9.7
2022-09-16T01:34:37.863Z,9.7
2022-09-16T01:36:32.063Z,9.8
2022-09-16T01:38:40.097Z,9.8
2022-09-16T01:40:31.088Z,9.8
2022-09-16T01:42:33.863Z,9.8
2022-09-16T01:44:33.869Z,9.8
2022-09-16T01:46:35.897Z,9.7
2022-09-16T01:48:33.446Z,9.7
2022-09-16T01:50:28.871Z,9.7
2022-09-16T01:52:36.048Z,9.7
2022-09-16T01:54:31.407Z,9.7
2022-09-16T01:56:32.619Z,9.6
2022-09-16T01:58:34.001Z,9.6
2022-09-16T02:00:26.412Z,9.6
2022-09-16T02:02:32.331Z,9.6
2022-09-16T02:04:32.316Z,9.6
2022-09-16T02:06:29.126Z,9.6
2022-09-16T02:08:32.661Z,9.6
2022-09-16T02:10:29.718Z,9.6
2022-09-16T02:12:33.320Z,9.6
2022-09-16T02:14:31.397Z,9.6
2022-09-16T02:16:34.714Z,9.6
2022-09-16T02:18:31.752Z,9.6
2022-09-16T02:20:31.409Z,9.6
2022-09-16T02:22:32.470Z,9.6
2022-09-16T02:24:30.664Z,9.6
2022-09-16T02:26:32.526Z,9.5
2022-09-16T02:28:32.304Z,9.5
2022-09-16T02:30:28.335Z,9.5
2022-09-16T02:32:31.578Z,9.5
2022-09-16T02:34:33.670Z,9.5
2022-09-16T02:36:30.239Z,9.6
2022-09-16T02:38:34.143Z,9.6
2022-09-16T02:40:34.104Z,9.6
2022-09-16T02:42:29.557Z,9.6
2022-09-16T02:44:29.523Z,9.6
2022-09-16T02:46:37.355Z,9.6
2022-09-16T02:48:37.451Z,9.6
2022-09-16T02:50:39.031Z,9.6
2022-09-16T02:52:37.501Z,9.4
2022-09-16T02:54:36.474Z,9.4
2022-09-16T02:56:33.604Z,9.5
2022-09-16T02:58:30.100Z,9.5
2022-09-16T03:00:33.095Z,9.5
2022-09-16T03:02:32.080Z,9.5
2022-09-16T03:04:30.927Z,9.5
2022-09-16T03:06:30.691Z,9.4
2022-09-16T03:08:30.731Z,9.4
2022-09-16T03:10:41.909Z,9.4
2022-09-16T03:12:46.870Z,9.4
2022-09-16T03:14:44.648Z,9.4
2022-09-16T03:16:45.369Z,9.4
2022-09-16T03:18:45.358Z,9.4
2022-09-16T03:20:40.650Z,9.4
2022-09-16T03:22:45.237Z,9.4
2022-09-16T03:24:42.115Z,9.4
2022-09-16T03:26:39.365Z,9.4
2022-09-16T03:28:41.104Z,9.4
2022-09-16T03:30:38.017Z,9.4
2022-09-16T03:32:37.233Z,9.4
2022-09-16T03:34:37.308Z,9.4
2022-09-16T03:36:38.415Z,9.5
2022-09-16T03:38:34.668Z,9.5
2022-09-16T03:40:33.761Z,9.5
2022-09-16T03:42:33.227Z,9.6
2022-09-16T03:44:35.870Z,9.6
2022-09-16T03:46:34.097Z,9.5
2022-09-16T03:48:33.271Z,9.5
2022-09-16T03:50:33.654Z,9.5
2022-09-16T03:52:33.695Z,9.5
2022-09-16T03:54:34.944Z,9.5
2022-09-16T03:56:33.872Z,9.7
2022-09-16T03:58:33.983Z,9.7
2022-09-16T04:00:34.441Z,9.7
2022-09-16T04:02:34.298Z,9.7
2022-09-16T04:04:34.500Z,9.7
2022-09-16T04:06:34.484Z,9.6
2022-09-16T04:08:35.465Z,9.6
2022-09-16T04:10:34.890Z,9.6
2022-09-16T04:12:35.016Z,9.6
2022-09-16T04:14:35.619Z,9.6
2022-09-16T04:16:35.154Z,9.7
2022-09-16T04:18:35.447Z,9.7
2022-09-16T04:20:35.421Z,9.7
2022-09-16T04:22:35.765Z,9.7
2022-09-16T04:24:35.742Z,9.8
2022-09-16T04:26:35.887Z,9.9
2022-09-16T04:28:36.427Z,9.9
2022-09-16T04:30:36.343Z,9.9
2022-09-16T04:32:36.303Z,9.9
2022-09-16T04:34:36.414Z,10
2022-09-16T04:36:36.988Z,10
2022-09-16T04:38:37.237Z,10
2022-09-16T04:40:37.110Z,10.1
2022-09-16T04:42:37.185Z,10.1
2022-09-16T04:44:37.348Z,10.1
2022-09-16T04:46:37.692Z,10.2
2022-09-16T04:48:38.343Z,10.2
2022-09-16T04:50:37.671Z,10.4
2022-09-16T04:52:38.037Z,10.6
2022-09-16T04:54:38.216Z,10.6
2022-09-16T04:56:38.197Z,10.5
2022-09-16T04:58:38.373Z,10.5
2022-09-16T05:00:38.523Z,10.5
2022-09-16T05:02:38.772Z,10.5
2022-09-16T05:04:39.065Z,10.7
2022-09-16T05:06:40.912Z,10.6
2022-09-16T05:08:40.002Z,10.8
2022-09-16T05:10:39.312Z,10.8
2022-09-16T05:12:39.623Z,10.9
2022-09-16T05:14:39.776Z,11.1
2022-09-16T05:16:39.944Z,11.2
2022-09-16T05:18:41.393Z,11.2
2022-09-16T05:20:40.223Z,11.3
2022-09-16T05:22:40.431Z,11.5
2022-09-16T05:24:40.518Z,11.6
2022-09-16T05:26:42.419Z,11.6
2022-09-16T05:28:41.395Z,11.8
2022-09-16T05:30:41.193Z,11.9
2022-09-16T05:32:41.412Z,11.9
2022-09-16T05:34:41.645Z,11.9
2022-09-16T05:36:43.081Z,12
2022-09-16T05:38:54.370Z,12.1
2022-09-16T05:40:42.024Z,12.3
2022-09-16T05:42:42.238Z,12.6
2022-09-16T05:44:42.484Z,12.6
2022-09-16T05:46:43.154Z,12.8
2022-09-16T05:48:42.910Z,13
2022-09-16T05:50:50.907Z,13
2022-09-16T05:52:43.563Z,13.3
2022-09-16T05:54:43.642Z,13.5
2022-09-16T05:56:43.950Z,13.3
2022-09-16T05:58:45.223Z,13.3
2022-09-16T06:00:44.332Z,13.5
2022-09-16T06:02:46.351Z,13.5
2022-09-16T06:04:45.092Z,13.5
2022-09-16T06:06:46.219Z,13.7
2022-09-16T06:08:45.339Z,13.8
2022-09-16T06:10:45.643Z,13.7
2022-09-16T06:12:45.789Z,13.8
2022-09-16T06:14:46.089Z,13.9
2022-09-16T06:16:46.616Z,13.9
2022-09-16T06:18:46.746Z,14
2022-09-16T06:20:47.555Z,13.9
2022-09-16T06:22:47.251Z,14
2022-09-16T06:24:47.480Z,14
2022-09-16T06:26:48.694Z,14.1
2022-09-16T06:28:48.683Z,14.2
2022-09-16T06:30:48.207Z,14.2
2022-09-16T06:32:48.470Z,14.5
2022-09-16T06:34:48.908Z,14.5
2022-09-16T06:36:49.021Z,14.6
2022-09-16T06:38:49.949Z,14.8
2022-09-16T06:40:49.625Z,14.8
2022-09-16T06:42:53.768Z,14.7
2022-09-16T06:44:50.223Z,14.5
2022-09-16T06:46:50.366Z,14.5
2022-09-16T06:48:52.674Z,14.7
2022-09-16T06:50:57.552Z,14.9
2022-09-16T06:52:51.470Z,14.9
2022-09-16T06:54:51.770Z,14.7
2022-09-16T06:56:51.733Z,14.8
2022-09-16T06:58:53.267Z,14.9
2022-09-16T07:00:52.757Z,15
2022-09-16T07:02:52.707Z,15
2022-09-16T07:04:52.915Z,14.8
2022-09-16T07:07:10.313Z,14.5
2022-09-16T07:08:53.875Z,14.5
2022-09-16T07:10:56.581Z,14.5
2022-09-16T07:12:53.959Z,14.7
2022-09-16T07:14:54.656Z,14.9
2022-09-16T07:16:54.814Z,14.9
2022-09-16T07:19:00.134Z,14.9
2022-09-16T07:21:01.230Z,15
2022-09-16T07:22:55.628Z,15
2022-09-16T07:24:55.693Z,15.2
2022-09-16T07:26:55.875Z,15.2
2022-09-16T07:28:59.262Z,15.4
2022-09-16T07:30:59.370Z,15.4
2022-09-16T07:32:56.882Z,15.6
2022-09-16T07:34:56.957Z,15.8
2022-09-16T07:36:58.590Z,15.9
2022-09-16T07:38:57.625Z,15.7
2022-09-16T07:41:03.778Z,15.6
2022-09-16T07:42:58.184Z,15.5
2022-09-16T07:44:58.485Z,15.5
2022-09-16T07:46:58.667Z,15.6
2022-09-16T07:49:00.444Z,15.5
2022-09-16T07:51:01.238Z,15.5
2022-09-16T07:52:59.564Z,15.6
2022-09-16T07:54:59.822Z,15.6
2022-09-16T07:57:00.113Z,15.8
2022-09-16T07:59:02.043Z,15.8
2022-09-16T08:01:04.542Z,15.8
2022-09-16T08:03:00.962Z,15.8
2022-09-16T08:05:01.347Z,15.8
2022-09-16T08:07:01.492Z,15.8
2022-09-16T08:09:10.644Z,15.6
2022-09-16T08:11:02.815Z,15.6
2022-09-16T08:13:02.684Z,15.6
2022-09-16T08:15:02.953Z,15.8
2022-09-16T08:17:03.339Z,15.7
2022-09-16T08:19:03.191Z,15.9
2022-09-16T08:21:05.305Z,15.8
2022-09-16T08:23:04.657Z,15.9
2022-09-16T08:25:04.797Z,15.9
2022-09-16T08:27:04.418Z,15.9
2022-09-16T08:29:09.057Z,15.7
2022-09-16T08:31:05.411Z,15.7
2022-09-16T08:33:05.247Z,15.7
2022-09-16T08:35:06.898Z,15.5
2022-09-16T08:37:05.902Z,15.5
2022-09-16T08:39:06.005Z,15.5
2022-09-16T08:41:22.423Z,15.4
2022-09-16T08:43:14.976Z,15.4
2022-09-16T08:45:19.601Z,15.1
2022-09-16T08:47:17.210Z,15.1
2022-09-16T08:49:17.126Z,15
2022-09-16T08:51:12.055Z,15
2022-09-16T08:53:15.670Z,14.9
2022-09-16T08:55:14.110Z,15
2022-09-16T08:57:14.477Z,15
2022-09-16T08:59:14.884Z,15.1
2022-09-16T09:01:18.463Z,15.1
2022-09-16T09:03:17.573Z,15.1
2022-09-16T09:05:16.813Z,15.1
2022-09-16T09:07:18.939Z,15.2
2022-09-16T09:09:22.785Z,15.2
2022-09-16T09:11:16.589Z,15.2
2022-09-16T09:13:24.601Z,15.1
2022-09-16T09:15:28.414Z,15.1
2022-09-16T09:17:21.474Z,15.1
2022-09-16T09:19:24.360Z,15.1
2022-09-16T09:21:21.550Z,15.1
2022-09-16T09:23:26.967Z,15.1
2022-09-16T09:25:31.539Z,14.8
2022-09-16T09:27:15.811Z,14.8
2022-09-16T09:29:30.781Z,14.6
2022-09-16T09:31:24.823Z,14.5
2022-09-16T09:33:44.787Z,14.5
2022-09-16T09:35:27.110Z,14.4
2022-09-16T09:37:30.592Z,14.4
2022-09-16T09:39:30.489Z,14.3
2022-09-16T09:41:21.163Z,14.3
2022-09-16T09:43:19.957Z,14.3
2022-09-16T09:45:21.990Z,14.2
2022-09-16T09:47:21.085Z,14.2
2022-09-16T09:49:23.431Z,14.2
2022-09-16T09:51:23.812Z,14.1
2022-09-16T09:53:20.054Z,14.1
2022-09-16T09:55:18.442Z,14
2022-09-16T09:57:27.420Z,14.1
2022-09-16T09:59:25.557Z,14.3
2022-09-16T10:01:17.306Z,14.4
2022-09-16T10:03:18.277Z,14.4
2022-09-16T10:05:21.989Z,14.6
2022-09-16T10:07:20.830Z,14.6
2022-09-16T10:09:19.616Z,14.6
2022-09-16T10:11:20.871Z,14.6
2022-09-16T10:13:19.588Z,14.6
2022-09-16T10:15:21.698Z,14.6
2022-09-16T10:17:19.377Z,14.6
2022-09-16T10:19:23.141Z,14.6
2022-09-16T10:21:19.864Z,14.6
2022-09-16T10:23:27.602Z,14.6
2022-09-16T10:25:23.505Z,14.7
2022-09-16T10:27:22.773Z,14.7
2022-09-16T10:29:20.729Z,14.7
2022-09-16T10:31:23.589Z,14.7
2022-09-16T10:33:25.152Z,14.7
2022-09-16T10:35:23.979Z,14.6
2022-09-16T10:37:22.547Z,14.6
2022-09-16T10:39:25.039Z,14.7
2022-09-16T10:41:25.542Z,14.7
2022-09-16T10:43:23.592Z,14.7
2022-09-16T10:45:26.196Z,14.7
2022-09-16T10:47:25.465Z,14.7
2022-09-16T10:49:31.285Z,14.5
2022-09-16T10:51:25.579Z,14.4
2022-09-16T10:53:30.558Z,14.4
2022-09-16T10:55:27.334Z,14.2
2022-09-16T10:57:27.448Z,14.2
2022-09-16T10:59:24.480Z,14.1
2022-09-16T11:01:39.072Z,14.1
2022-09-16T11:03:55.058Z,14.1
2022-09-16T11:05:32.494Z,14.1
2022-09-16T11:07:36.111Z,14.1
2022-09-16T11:09:32.302Z,14.1
2022-09-16T11:11:40.819Z,14.1
2022-09-16T11:13:40.544Z,14.1
2022-09-16T11:15:39.563Z,14
2022-09-16T11:17:42.751Z,14
2022-09-16T11:19:36.529Z,14
2022-09-16T11:21:51.332Z,14
2022-09-16T11:23:43.004Z,14
2022-09-16T11:25:40.664Z,14.1
2022-09-16T11:27:38.628Z,14.1
2022-09-16T11:29:46.610Z,14.1
2022-09-16T11:31:39.232Z,14.2
2022-09-16T11:33:37.275Z,14.2
2022-09-16T11:35:40.110Z,14.4
2022-09-16T11:37:35.954Z,14.4
2022-09-16T11:39:43.568Z,14.4
2022-09-16T11:41:34.604Z,14.4
2022-09-16T11:43:45.774Z,14.4
2022-09-16T11:45:41.833Z,14.4
2022-09-16T11:47:43.558Z,14.4
2022-09-16T11:49:46.118Z,14.3
2022-09-16T11:51:49.615Z,14.3
2022-09-16T11:53:58.978Z,14.4
2022-09-16T11:55:45.153Z,14.4
2022-09-16T11:57:37.410Z,14.4
2022-09-16T11:59:39.411Z,14.4
2022-09-16T12:01:39.649Z,14.4
2022-09-16T12:03:40.093Z,14.4
2022-09-16T12:05:39.188Z,14.5
2022-09-16T12:07:37.799Z,14.5
2022-09-16T12:09:42.169Z,14.5
2022-09-16T12:11:37.993Z,14.5
2022-09-16T12:13:37.608Z,14.5
2022-09-16T12:15:38.867Z,14.5
2022-09-16T12:17:39.257Z,14.5
2022-09-16T12:19:40.166Z,14.5
2022-09-16T12:21:39.438Z,14.5
2022-09-16T12:23:41.870Z,14.5
2022-09-16T12:25:46.005Z,14.5
2022-09-16T12:27:43.814Z,14.5
2022-09-16T12:29:43.561Z,14.5
2022-09-16T12:31:43.099Z,14.5
2022-09-16T12:33:42.474Z,14.4
2022-09-16T12:35:40.517Z,14.4
2022-09-16T12:37:43.006Z,14.4
2022-09-16T12:39:37.170Z,14.4
2022-09-16T12:42:02.421Z,14.4
2022-09-16T12:44:06.430Z,14.4
2022-09-16T12:45:54.355Z,14.5
2022-09-16T12:47:57.658Z,14.5
2022-09-16T12:49:55.507Z,14.5
2022-09-16T12:52:08.527Z,14.4
2022-09-16T12:54:01.591Z,14.4
2022-09-16T12:55:52.465Z,14.5
2022-09-16T12:57:56.148Z,14.5
2022-09-16T13:00:04.168Z,14.5
2022-09-16T13:00:58.249Z,15.1
2022-09-16T13:01:17.683Z,14.5
2022-09-16T13:01:59.670Z,15.1
2022-09-16T13:19:40.211Z,14.5
2022-09-16T13:19:49.098Z,14.5
2022-09-16T13:21:44.659Z,14.5
2022-09-16T13:23:47.221Z,14.5
2022-09-16T13:25:49.873Z,14.5
2022-09-16T13:27:55.852Z,14.5
2022-09-16T13:29:44.410Z,14.5
2022-09-16T13:31:47.285Z,14.5
2022-09-16T13:33:45.863Z,14.4
2022-09-16T13:35:46.224Z,14.3
2022-09-16T13:37:45.590Z,14.3
2022-09-16T13:39:49.676Z,14.3
2022-09-16T13:41:46.792Z,14.2
2022-09-16T13:43:52.138Z,14.2
2022-09-16T13:45:45.927Z,14.2
2022-09-16T13:47:49.074Z,14.2
2022-09-16T13:49:50.426Z,14.2
2022-09-16T13:51:49.156Z,14.2
2022-09-16T13:53:49.070Z,14.2
2022-09-16T13:55:48.275Z,14.2
2022-09-16T13:57:58.382Z,14.2
2022-09-16T14:00:10.521Z,14.2
2022-09-16T14:02:00.182Z,14.1
2022-09-16T14:03:54.459Z,14.1
2022-09-16T14:06:13.584Z,14.1
2022-09-16T14:07:55.574Z,14.1
2022-09-16T14:09:57.970Z,14.1
2022-09-16T14:11:55.810Z,14
2022-09-16T14:14:05.119Z,13.9
2022-09-16T14:15:53.409Z,13.9
2022-09-16T14:17:55.332Z,13.9
2022-09-16T14:19:55.614Z,13.9
2022-09-16T14:22:00.656Z,13.9
2022-09-16T14:23:50.702Z,14
2022-09-16T14:25:52.313Z,14
2022-09-16T14:27:50.994Z,14
2022-09-16T14:29:56.301Z,14
2022-09-16T14:31:54.986Z,14
2022-09-16T14:33:56.705Z,13.9
2022-09-16T14:35:54.617Z,13.9
2022-09-16T14:37:57.016Z,13.9
2022-09-16T14:39:55.435Z,13.9
2022-09-16T14:41:55.738Z,13.9
2022-09-16T14:43:55.298Z,13.8
2022-09-16T14:45:56.493Z,13.8
2022-09-16T14:47:54.938Z,13.8
2022-09-16T14:50:00.578Z,13.8
2022-09-16T14:51:56.203Z,13.8
2022-09-16T14:54:11.834Z,13.6
2022-09-16T14:55:59.156Z,13.6
2022-09-16T14:57:05.263Z,14.5
2022-09-16T14:59:01.601Z,13.6
2022-09-16T14:59:57.610Z,13.6
2022-09-16T15:01:58.839Z,13.6
2022-09-16T15:04:00.552Z,13.6
2022-09-16T15:05:59.421Z,13.5
2022-09-16T15:08:13.997Z,13.5
2022-09-16T15:10:01.149Z,13.5
2022-09-16T15:11:59.033Z,13.5
2022-09-16T15:13:56.883Z,13.4
2022-09-16T15:16:00.941Z,13.4
2022-09-16T15:17:59.476Z,13.4
2022-09-16T15:19:56.724Z,14.1
2022-09-16T15:42:10.151Z,13.3
2022-09-16T15:42:26.018Z,13.3
2022-09-16T15:42:28.287Z,13.3
2022-09-16T15:43:12.452Z,13.9
2022-09-16T15:52:07.577Z,13.2
2022-09-16T15:53:01.581Z,13.8
2022-09-16T15:54:07.120Z,13.3
2022-09-16T15:54:23.300Z,13.8
2022-09-16T15:54:28.307Z,13.8
2022-09-16T15:55:54.053Z,13.3
2022-09-16T15:56:06.372Z,13.3
2022-09-16T15:58:06.263Z,13.3
2022-09-16T16:00:13.506Z,13.3
2022-09-16T16:02:06.785Z,13.1
2022-09-16T16:04:04.378Z,13.1
2022-09-16T16:06:01.977Z,13.1
2022-09-16T16:08:07.620Z,13.1
2022-09-16T16:10:12.076Z,13.1
2022-09-16T16:12:05.496Z,13.1
2022-09-16T16:14:02.929Z,13.1
2022-09-16T16:16:02.970Z,13.1
2022-09-16T16:18:05.509Z,13.1
2022-09-16T16:20:03.785Z,13.1
2022-09-16T16:22:03.826Z,13.1
2022-09-16T16:24:03.855Z,13.1
2022-09-16T16:26:05.565Z,13.1
2022-09-16T16:28:04.101Z,13
2022-09-16T16:30:05.675Z,13
2022-09-16T16:32:07.402Z,13
2022-09-16T16:34:04.950Z,13
2022-09-16T16:36:05.523Z,13
2022-09-16T16:37:49.525Z,13.6
2022-09-16T16:55:09.437Z,12.9
2022-09-16T16:56:14.479Z,12.9
2022-09-16T16:58:07.129Z,12.9
2022-09-16T17:00:03.100Z,13.4
2022-09-16T17:01:57.866Z,12.9
2022-09-16T17:02:10.836Z,12.9
2022-09-16T17:04:08.701Z,12.9
2022-09-16T17:06:08.543Z,12.9
2022-09-16T17:08:08.170Z,12.9
2022-09-16T17:09:05.291Z,13.4
2022-09-16T18:37:19.408Z,12.7
2022-09-16T18:38:17.383Z,12.7
2022-09-16T18:40:17.396Z,12.7
2022-09-16T18:42:17.545Z,12.7
2022-09-16T18:44:20.246Z,12.7
2022-09-16T18:46:26.322Z,12.7
2022-09-16T18:48:18.396Z,12.7
2022-09-16T18:50:18.354Z,12.7
2022-09-16T18:52:18.460Z,12.7
2022-09-16T18:54:15.796Z,13.2
2022-09-16T18:55:30.048Z,12.7
2022-09-16T18:56:21.610Z,12.7
2022-09-16T18:58:24.834Z,13.2
2022-09-16T19:29:06.448Z,12.4
2022-09-16T19:30:22.252Z,12.4
2022-09-16T19:32:22.631Z,12.4
2022-09-16T19:33:43.622Z,12.9
2022-09-16T19:34:45.241Z,12.4
2022-09-16T19:36:24.842Z,12.4
2022-09-16T19:38:23.212Z,12.4
2022-09-16T19:40:24.001Z,12.4
2022-09-16T19:42:23.713Z,12.4
2022-09-16T19:42:55.380Z,12.9
2022-09-16T20:00:55.720Z,12.4
2022-09-16T20:02:25.814Z,12.4
2022-09-16T20:04:25.727Z,12.4
2022-09-16T20:06:28.037Z,12.4
2022-09-16T20:08:26.176Z,12.4
2022-09-16T20:10:26.241Z,12.4
2022-09-16T20:12:26.713Z,12.4
2022-09-16T20:14:26.735Z,12.4
2022-09-16T20:15:29.009Z,12.8
2022-09-16T20:25:37.567Z,12.4
2022-09-16T20:26:28.015Z,12.4
2022-09-16T20:28:29.952Z,12.4
2022-09-16T20:30:28.980Z,12.4
2022-09-16T20:32:28.557Z,12.4
2022-09-16T20:34:02.653Z,12.7
2022-09-16T20:36:08.949Z,12.3
2022-09-16T20:36:30.009Z,12.3
2022-09-16T20:38:29.237Z,12.3
2022-09-16T20:40:29.440Z,12.3
2022-09-16T20:42:29.532Z,12.3
2022-09-16T20:44:29.796Z,12.3
2022-09-16T20:46:32.725Z,12.3
2022-09-16T20:48:30.288Z,12.3
2022-09-16T20:50:30.396Z,12.3
2022-09-16T20:52:30.582Z,12.3
2022-09-16T20:54:30.732Z,12.3
2022-09-16T20:56:37.773Z,12.2
2022-09-16T20:58:32.837Z,12.2
2022-09-16T21:00:31.555Z,12.1
2022-09-16T21:02:31.643Z,12.1
2022-09-16T21:04:31.799Z,12.1
2022-09-16T21:06:34.144Z,12
2022-09-16T21:08:34.235Z,12
2022-09-16T21:09:33.377Z,12.5
2022-09-16T21:16:34.267Z,12
2022-09-16T21:16:38.166Z,12
2022-09-16T21:18:33.443Z,11.9
2022-09-16T21:19:26.678Z,12.6
2022-09-16T21:20:10.516Z,11.9
2022-09-16T21:20:33.411Z,11.9
2022-09-16T21:22:34.949Z,11.9
2022-09-16T21:22:49.962Z,12.3
2022-09-16T22:08:48.065Z,11.7
2022-09-16T22:10:38.369Z,11.5
2022-09-16T22:12:21.760Z,12
